x

South Hecate Strait (46185) Wave Buoy

12:00am - Thu 25th May 2017 All times are PDT. -7 hours from GMT.

  • Sig Wave height 9.5ft
  • Peak Period 8s
  • Wind
    31mph, 40mph gusts
  • Sea Temp 53°f
  • Air Temp 50°f
  • Sea Pressure 1018.2mb
  • South Hecate Strait
  • South Hecate Strait

More Historic Weather Station data

Upgrade to MSW Pro to gain access to the past 30 days of data for over 8000 Wavebouys and Weather Stations around the globe.

Join Pro

Comparision Forecast

View Surf forecast
   
Thu 05/25 12:00am 9.5ft 8s 31 40 mph 1018.2mb 53f 50f
Wed 05/24 11:00pm 9ft 8s 29 36 mph 1018.6mb 53f 51f
10:00pm 9ft 7s 29 38 mph 1019.1mb 53f 50f
9:00pm 9ft 7s 31 38 mph 1019.1mb 53f 50f
8:00pm 9.5ft 8s 29 36 mph 1019.5mb 53f 51f
7:00pm 9ft 8s 29 36 mph 1019.9mb 53f 51f
6:00pm 8.5ft 7s 27 34 mph 1020.4mb 53f 50f
5:00pm 9ft 8s 27 31 mph 1021.1mb 53f 50f
4:00pm 10ft 8s 29 36 mph 1021.2mb 52f 50f
3:00pm 10.5ft 8s 29 34 mph 1021.6mb 53f 50f
2:00pm 10ft 8s 27 34 mph 1021.9mb 52f 50f
1:00pm 11ft 9s 31 38 mph 1021.7mb 52f 49f
12:00pm 12ft 9s 29 36 mph 1021.7mb 52f 49f
11:00am 12ft 9s 29 36 mph 1022.1mb 52f 49f
10:00am 12ft 10s 31 36 mph 1022.3mb 52f 49f
9:00am 12.5ft 9s 31 40 mph 1022.5mb 52f 49f
8:00am 11.5ft 8s 29 40 mph 1022.5mb 52f 49f
7:00am 10.5ft 8s 36 45 mph 1021.3mb 52f 49f
6:00am  -   -  31
mph
- - -
5:00am 11ft 8s 34 40 mph 1021.4mb 53f 48f
4:00am 10.5ft 8s 31 40 mph 1021.1mb 53f 51f
3:00am 8.5ft 7s 29 36 mph 1020.6mb 53f 51f
2:00am 7ft 5s 27 31 mph 1020.2mb 53f 52f
1:00am 5.5ft 9s 25 31 mph 1020mb 54f 52f
12:00am 6ft 9s 25 31 mph 1019.6mb 54f 52f
Tue 05/23 11:00pm 5.5ft 10s 18 20 mph 1019.4mb 53f 53f
10:00pm 5ft 8s 13 16 mph 1019mb 53f 52f
9:00pm 5ft 9s 13 16 mph 1018.5mb 53f 52f
8:00pm 5ft 8s 11 13 mph 1018.4mb 53f 51f
7:00pm 5.5ft 8s 16 20 mph 1018mb 53f 51f
6:00pm 5.5ft 5s 18 20 mph 1017.5mb 53f 50f
5:00pm 6ft 5s 20 22 mph 1017.3mb 54f 50f
4:00pm 6ft 5s 20 25 mph 1016.7mb 53f 50f
3:00pm 6ft 6s 20 25 mph 1016.5mb 53f 50f
2:00pm 7ft 6s 22 27 mph 1015.7mb 53f 49f
1:00pm 6.5ft 6s 22 27 mph 1015.1mb 53f 49f
12:00pm 6ft 6s 22 29 mph 1014.4mb 53f 49f
11:00am 6ft 10s 20 25 mph 1014.1mb 53f 50f
10:00am 6ft 10s 22 25 mph 1013.5mb 53f 50f
9:00am 6.5ft 10s 22 27 mph 1013.3mb 53f 50f
8:00am 5.5ft 5s 25 29 mph 1013mb 53f 50f
7:00am 5ft 10s 22 27 mph 1013.2mb 54f 50f
6:00am 4.5ft 12s 22 27 mph 1013.7mb 54f 51f
5:00am 4ft 11s 18 22 mph 1013.9mb 54f 50f
4:00am 4.5ft 11s 18 22 mph 1014.6mb 54f 52f
3:00am 4.5ft 11s 18 22 mph 1015.5mb 54f 52f
2:00am 4.5ft 11s 18 20 mph 1016mb 54f 52f
1:00am 4.5ft 11s 16 20 mph 1016.8mb 54f 52f
12:00am 4.5ft 11s 18 20 mph 1017.1mb 54f 53f
Mon 05/22 11:00pm 4.5ft 9s 16 20 mph 1017.6mb 54f 53f
10:00pm 4.5ft 11s 16 20 mph 1018mb 54f 52f
9:00pm 5ft 11s 18 20 mph 1018.2mb 55f 52f
8:00pm 5.5ft 11s 13 18 mph 1018.9mb 54f 52f
7:00pm 5.5ft 11s 16 18 mph 1020mb 54f 52f
6:00pm 5ft 11s 16 18 mph 1020.5mb 55f 52f
5:00pm 4.5ft 11s 13 16 mph 1021.2mb 55f 52f
4:00pm 4ft 11s 13 18 mph 1021.9mb 54f 52f
3:00pm 4ft 10s 13 13 mph 1022mb 54f 53f
2:00pm 4ft 12s 11 13 mph 1022.1mb 54f 53f
1:00pm 4ft 12s 13 16 mph 1022.4mb 54f 53f
12:00pm 4ft 12s 13 16 mph 1022.4mb 54f 53f
11:00am 4.5ft 11s 16 18 mph 1022.5mb 54f 52f
10:00am 4.5ft 11s 16 18 mph 1022.5mb 54f 52f
9:00am 4ft 11s 16 18 mph 1022.2mb 54f 52f
8:00am 3.5ft 10s 13 18 mph 1022.8mb 55f 52f
7:00am 4.5ft 10s 13 16 mph 1023.2mb 55f 52f
6:00am 4ft 11s 13 13 mph 1023.9mb 55f 52f
5:00am 3.5ft 11s 11 13 mph 1023.8mb 55f 52f
4:00am 3.5ft 11s 9 11 mph 1024.3mb 55f 53f
3:00am 3.5ft 11s 9 13 mph 1024.4mb 54f 53f
2:00am 3ft 10s 9 11 mph 1024.4mb 54f 53f
1:00am 3ft 10s 9 9 mph 1024.6mb 54f 53f
12:00am 3.5ft 10s 7 9 mph 1024.9mb 54f 53f
Sun 05/21 11:00pm 3ft 9s 7 9 mph 1025.1mb 54f 53f
10:00pm 3ft 9s 7 7 mph 1025.2mb 55f 53f
9:00pm 3ft 9s 7 9 mph 1025.1mb 55f 52f
8:00pm 3ft 8s 7 9 mph 1025.9mb 55f 53f
7:00pm 2.5ft 9s 9 11 mph 1025.4mb 55f 52f
6:00pm 2.5ft 10s 11 13 mph 1025.7mb 54f 52f
5:00pm 2.5ft 15s 13 16 mph 1025.9mb 54f 52f
4:00pm 2.5ft 15s 13 16 mph 1026.7mb 54f 52f
3:00pm 2.5ft 15s 13 16 mph 1026.7mb 54f 52f
2:00pm 2.5ft 15s 13 16 mph 1026.5mb 55f 52f
1:00pm 2.5ft 15s 11 13 mph 1026.4mb 55f 52f
12:00pm 2.5ft 15s 13 16 mph 1026.2mb 55f 52f
11:00am 2.5ft 16s 13 16 mph 1025.7mb 55f 51f
10:00am 2.5ft 14s 13 16 mph 1025.4mb 55f 51f
9:00am 2.5ft 15s 16 18 mph 1024.9mb 55f 51f